createdAt,value
2022-08-27T00:00:49.456Z,94888.78
2022-08-27T00:03:16.561Z,94884.34
2022-08-27T00:05:44.113Z,94894.59
2022-08-27T00:08:12.690Z,94893.19
2022-08-27T00:10:40.629Z,94894.00
2022-08-27T00:13:07.758Z,94890.78
2022-08-27T00:15:34.587Z,94898.00
2022-08-27T00:18:01.253Z,94900.22
2022-08-27T00:20:28.357Z,94895.63
2022-08-27T00:22:55.032Z,94901.84
2022-08-27T00:25:22.105Z,94896.41
2022-08-27T00:27:48.798Z,94900.63
2022-08-27T00:30:18.351Z,94898.81
2022-08-27T00:32:45.586Z,94895.00
2022-08-27T00:35:14.132Z,94896.22
2022-08-27T00:37:41.115Z,94899.81
2022-08-27T00:40:10.845Z,94895.59
2022-08-27T00:42:37.855Z,94900.03
2022-08-27T00:45:06.694Z,94894.59
2022-08-27T00:47:40.561Z,94893.38
2022-08-27T00:50:16.587Z,94889.38
2022-08-27T00:52:46.188Z,94885.94
2022-08-27T00:55:18.742Z,94882.13
2022-08-27T00:57:52.484Z,94876.50
2022-08-27T01:00:20.306Z,94878.91
2022-08-27T01:02:47.849Z,94879.75
2022-08-27T01:05:20.501Z,94874.50
2022-08-27T01:07:50.664Z,94874.28
2022-08-27T01:10:21.888Z,94873.09
2022-08-27T01:12:53.498Z,94873.28
2022-08-27T01:15:23.312Z,94875.09
2022-08-27T01:17:50.997Z,94872.09
2022-08-27T01:20:24.725Z,94872.88
2022-08-27T01:22:55.720Z,94870.25
2022-08-27T01:25:23.910Z,94875.88
2022-08-27T01:27:52.199Z,94874.84
2022-08-27T01:30:21.688Z,94873.44
2022-08-27T01:32:48.765Z,94877.25
2022-08-27T01:35:16.518Z,94875.44
2022-08-27T01:37:47.633Z,94874.63
2022-08-27T01:40:16.677Z,94874.44
2022-08-27T01:42:48.537Z,94877.44
2022-08-27T01:45:20.543Z,94878.84
2022-08-27T01:47:47.624Z,94877.81
2022-08-27T01:50:24.509Z,94881.59
2022-08-27T01:52:52.338Z,94881.00
2022-08-27T01:55:22.607Z,94875.97
2022-08-27T01:57:49.729Z,94879.38
2022-08-27T02:00:25.268Z,94872.13
2022-08-27T02:02:51.958Z,94873.94
2022-08-27T02:05:19.517Z,94873.94
2022-08-27T02:07:46.264Z,94872.72
2022-08-27T02:10:18.105Z,94874.31
2022-08-27T02:12:45.067Z,94874.13
2022-08-27T02:15:12.413Z,94872.53
2022-08-27T02:17:39.963Z,94864.50
2022-08-27T02:20:09.031Z,94868.50
2022-08-27T02:22:35.729Z,94868.09
2022-08-27T02:25:02.633Z,94871.72
2022-08-27T02:27:29.388Z,94862.88
2022-08-27T02:29:56.029Z,94867.91
2022-08-27T02:32:32.211Z,94867.31
2022-08-27T02:34:59.625Z,94860.69
2022-08-27T02:37:26.373Z,94856.44
2022-08-27T02:39:53.093Z,94850.81
2022-08-27T02:42:19.760Z,94848.22
2022-08-27T02:44:47.207Z,94842.34
2022-08-27T02:47:14.442Z,94844.75
2022-08-27T02:49:41.271Z,94844.13
2022-08-27T02:52:07.880Z,94838.50
2022-08-27T02:54:34.520Z,94838.91
2022-08-27T02:57:01.201Z,94836.16
2022-08-27T02:59:27.864Z,94836.50
2022-08-27T03:01:54.625Z,94834.47
2022-08-27T03:04:22.762Z,94837.69
2022-08-27T03:06:49.493Z,94837.50
2022-08-27T03:09:16.120Z,94835.53
2022-08-27T03:11:42.733Z,94839.53
2022-08-27T03:14:09.420Z,94844.75
2022-08-27T03:16:37.494Z,94832.72
2022-08-27T03:19:06.763Z,94832.31
2022-08-27T03:21:35.137Z,94836.16
2022-08-27T03:24:11.643Z,94833.34
2022-08-27T03:26:41.364Z,94831.91
2022-08-27T03:29:07.973Z,94824.84
2022-08-27T03:31:34.776Z,94823.63
2022-08-27T03:34:06.781Z,94822.66
2022-08-27T03:36:33.493Z,94827.28
2022-08-27T03:39:00.158Z,94827.28
2022-08-27T03:41:43.777Z,94829.69
2022-08-27T03:44:21.368Z,94829.69
2022-08-27T03:46:49.565Z,94829.28
2022-08-27T03:49:20.611Z,94830.69
2022-08-27T03:51:49.247Z,94831.25
2022-08-27T03:54:16.009Z,94833.69
2022-08-27T03:56:42.604Z,94831.69
2022-08-27T03:59:09.226Z,94838.09
2022-08-27T04:01:36.038Z,94835.28
2022-08-27T04:04:03.367Z,94832.31
2022-08-27T04:06:30.186Z,94831.50
2022-08-27T04:08:56.833Z,94834.31
2022-08-27T04:11:23.956Z,94839.13
2022-08-27T04:13:51.380Z,94838.72
2022-08-27T04:16:18.085Z,94840.13
2022-08-27T04:18:44.785Z,94840.53
2022-08-27T04:21:13.656Z,94843.97
2022-08-27T04:23:41.825Z,94839.94
2022-08-27T04:26:09.729Z,94838.72
2022-08-27T04:28:38.628Z,94845.56
2022-08-27T04:31:06.293Z,94850.56
2022-08-27T04:33:35.730Z,94845.34
2022-08-27T04:36:06.112Z,94849.78
2022-08-27T04:38:33.512Z,94848.75
2022-08-27T04:41:27.461Z,94856.78
2022-08-27T04:43:56.987Z,94857.16
2022-08-27T04:46:26.611Z,94858.59
2022-08-27T04:48:53.529Z,94859.00
2022-08-27T04:51:20.917Z,94859.78
2022-08-27T04:53:49.934Z,94861.78
2022-08-27T04:56:19.186Z,94873.84
2022-08-27T04:58:45.796Z,94867.81
2022-08-27T05:01:25.099Z,94871.03
2022-08-27T05:03:53.011Z,94872.06
2022-08-27T05:06:21.217Z,94882.09
2022-08-27T05:08:50.108Z,94878.66
2022-08-27T05:11:19.367Z,94873.28
2022-08-27T05:13:47.529Z,94874.09
2022-08-27T05:16:20.850Z,94870.13
2022-08-27T05:18:50.157Z,94877.34
2022-08-27T05:21:18.545Z,94871.13
2022-08-27T05:23:45.188Z,94874.50
2022-08-27T05:26:12.205Z,94872.34
2022-08-27T05:28:39.007Z,94871.72
2022-08-27T05:31:08.681Z,94863.91
2022-08-27T05:33:37.333Z,94866.72
2022-08-27T05:36:05.166Z,94863.50
2022-08-27T05:38:32.427Z,94866.34
2022-08-27T05:41:09.057Z,94865.69
2022-08-27T05:43:37.188Z,94862.50
2022-08-27T05:46:10.020Z,94868.09
2022-08-27T05:48:37.474Z,94872.53
2022-08-27T05:51:41.452Z,94873.72
2022-08-27T05:54:14.805Z,94868.34
2022-08-27T05:56:42.264Z,94871.31
2022-08-27T05:59:27.735Z,94872.53
2022-08-27T06:01:56.142Z,94879.03
2022-08-27T06:04:24.394Z,94873.66
2022-08-27T06:06:51.828Z,94882.66
2022-08-27T06:09:22.208Z,94883.03
2022-08-27T06:11:49.284Z,94877.66
2022-08-27T06:14:15.914Z,94887.50
2022-08-27T06:16:42.706Z,94879.44
2022-08-27T06:19:12.082Z,94872.63
2022-08-27T06:21:40.099Z,94874.84
2022-08-27T06:24:07.770Z,94874.84
2022-08-27T06:26:34.995Z,94880.03
2022-08-27T06:29:06.800Z,94879.25
2022-08-27T06:31:35.449Z,94875.44
2022-08-27T06:34:07.463Z,94873.41
2022-08-27T06:36:37.194Z,94873.03
2022-08-27T06:39:04.455Z,94873.47
2022-08-27T06:41:32.576Z,94868.44
2022-08-27T06:43:59.218Z,94868.03
2022-08-27T06:46:29.467Z,94867.84
2022-08-27T06:48:58.707Z,94868.44
2022-08-27T06:51:28.783Z,94874.25
2022-08-27T06:53:57.396Z,94873.28
2022-08-27T06:56:24.295Z,94877.53
2022-08-27T06:58:59.605Z,94874.09
2022-08-27T07:01:30.372Z,94868.66
2022-08-27T07:04:02.657Z,94872.69
2022-08-27T07:06:31.754Z,94871.88
2022-08-27T07:08:59.127Z,94873.88
2022-08-27T07:11:27.517Z,94869.66
2022-08-27T07:13:54.794Z,94880.72
2022-08-27T07:16:24.515Z,94878.91
2022-08-27T07:18:53.283Z,94887.34
2022-08-27T07:21:20.930Z,94880.50
2022-08-27T07:23:49.163Z,94886.78
2022-08-27T07:26:16.821Z,94894.22
2022-08-27T07:28:44.844Z,94890.19
2022-08-27T07:31:13.937Z,94891.56
2022-08-27T07:33:42.144Z,94891.59
2022-08-27T07:36:18.499Z,94888.69
2022-08-27T07:38:48.439Z,94890.31
2022-08-27T07:41:24.931Z,94903.81
2022-08-27T07:44:16.840Z,94907.09
2022-08-27T07:46:47.903Z,94904.47
2022-08-27T07:49:15.460Z,94914.31
2022-08-27T07:51:42.094Z,94906.06
2022-08-27T07:54:08.976Z,94912.09
2022-08-27T07:56:35.609Z,94910.88
2022-08-27T07:59:02.434Z,94913.91
2022-08-27T08:01:29.722Z,94908.88
2022-08-27T08:03:56.956Z,94915.47
2022-08-27T08:06:23.726Z,94914.69
2022-08-27T08:08:50.394Z,94912.25
2022-08-27T08:11:18.424Z,94920.28
2022-08-27T08:13:46.490Z,94915.25
2022-08-27T08:16:13.562Z,94919.25
2022-08-27T08:18:40.701Z,94919.63
2022-08-27T08:21:12.301Z,94925.03
2022-08-27T08:23:39.485Z,94922.97
2022-08-27T08:26:07.363Z,94929.56
2022-08-27T08:28:34.384Z,94928.59
2022-08-27T08:31:01.606Z,94922.38
2022-08-27T08:33:28.674Z,94926.41
2022-08-27T08:35:55.358Z,94925.63
2022-08-27T08:38:22.088Z,94922.25
2022-08-27T08:40:54.470Z,94924.88
2022-08-27T08:43:35.816Z,94927.44
2022-08-27T08:46:34.744Z,94930.50
2022-08-27T08:49:10.455Z,94930.03
2022-08-27T08:51:42.103Z,94931.88
2022-08-27T08:54:15.913Z,94933.72
2022-08-27T08:56:55.269Z,94922.56
2022-08-27T08:59:36.152Z,94923.00
2022-08-27T09:02:02.823Z,94921.72
2022-08-27T09:04:30.044Z,94917.97
2022-08-27T09:07:10.097Z,94919.50
2022-08-27T09:09:45.825Z,94923.19
2022-08-27T09:12:19.235Z,94920.63
2022-08-27T09:15:14.132Z,94917.94
2022-08-27T09:17:42.124Z,94927.94
2022-08-27T09:20:13.255Z,94919.56
2022-08-27T09:22:51.345Z,94924.09
2022-08-27T09:25:28.058Z,94922.19
2022-08-27T09:28:01.077Z,94923.34
2022-08-27T09:30:32.237Z,94920.88
2022-08-27T09:33:01.777Z,94923.34
2022-08-27T09:35:44.760Z,94919.75
2022-08-27T09:38:19.523Z,94920.88
2022-08-27T09:40:50.518Z,94916.31
2022-08-27T09:43:17.190Z,94914.56
2022-08-27T09:45:49.080Z,94918.66
2022-08-27T09:48:20.843Z,94912.50
2022-08-27T09:50:56.871Z,94906.06
2022-08-27T09:53:44.576Z,94909.75
2022-08-27T09:56:25.387Z,94906.63
2022-08-27T09:59:02.754Z,94917.31
2022-08-27T10:01:32.817Z,94908.66
2022-08-27T10:04:10.059Z,94912.47
2022-08-27T10:06:37.712Z,94911.34
2022-08-27T10:09:33.217Z,94914.13
2022-08-27T10:12:07.571Z,94908.59
2022-08-27T10:14:40.732Z,94907.53
2022-08-27T10:17:21.439Z,94902.22
2022-08-27T10:20:08.456Z,94903.06
2022-08-27T10:22:44.648Z,94903.75
2022-08-27T10:25:23.603Z,94910.66
2022-08-27T10:28:05.730Z,94904.38
2022-08-27T10:31:01.276Z,94905.88
2022-08-27T10:33:52.320Z,94905.53
2022-08-27T10:36:39.074Z,94900.19
2022-08-27T10:39:35.978Z,94897.53
2022-08-27T10:42:30.335Z,94897.19
2022-08-27T10:45:11.781Z,94894.50
2022-08-27T10:48:06.233Z,94890.91
2022-08-27T10:51:01.059Z,94885.84
2022-08-27T10:53:41.988Z,94881.63
2022-08-27T10:56:37.892Z,94878.38
2022-08-27T10:59:19.875Z,94879.44
2022-08-27T11:02:08.302Z,94882.09
2022-08-27T11:04:54.901Z,94874.50
2022-08-27T11:07:27.592Z,94874.25
2022-08-27T11:10:06.244Z,94869.47
2022-08-27T11:12:44.531Z,94869.50
2022-08-27T11:15:17.709Z,94872.19
2022-08-27T11:17:50.461Z,94869.25
2022-08-27T11:20:25.278Z,94870.13
2022-08-27T11:23:08.063Z,94871.00
2022-08-27T11:25:50.976Z,94867.59
2022-08-27T11:28:30.196Z,94869.41
2022-08-27T11:31:21.484Z,94865.56
2022-08-27T11:34:16.068Z,94862.28
2022-08-27T11:37:03.970Z,94861.03
2022-08-27T11:40:08.279Z,94852.69
2022-08-27T11:42:38.984Z,94862.34
2022-08-27T11:45:29.734Z,94850.34
2022-08-27T11:48:24.317Z,94846.75
2022-08-27T11:50:57.362Z,94845.38
2022-08-27T11:53:28.829Z,94844.09
2022-08-27T11:55:56.185Z,94838.44
2022-08-27T11:58:29.749Z,94836.56
2022-08-27T12:01:03.801Z,94835.09
2022-08-27T12:03:35.405Z,94829.34
2022-08-27T12:06:18.535Z,94824.94
2022-08-27T12:08:45.524Z,94827.84
2022-08-27T12:11:44.274Z,94819.81
2022-08-27T12:14:29.238Z,94824.97
2022-08-27T12:17:08.226Z,94818.25
2022-08-27T12:20:07.789Z,94831.88
2022-08-27T12:23:02.290Z,94824.34
2022-08-27T12:25:29.294Z,94818.28
2022-08-27T12:28:05.352Z,94817.16
2022-08-27T12:30:36.331Z,94810.84
2022-08-27T12:33:14.791Z,94815.53
2022-08-27T12:35:50.594Z,94813.75
2022-08-27T12:38:50.865Z,94816.53
2022-08-27T12:41:31.936Z,94813.59
2022-08-27T12:44:04.852Z,94815.47
2022-08-27T12:46:31.918Z,94809.34
2022-08-27T12:49:35.900Z,94813.03
2022-08-27T12:51:48.861Z,94813.66
2022-08-27T12:54:36.980Z,94810.09
2022-08-27T12:57:24.402Z,94812.28
2022-08-27T13:00:05.355Z,94811.03
2022-08-27T13:02:58.472Z,94805.72
2022-08-27T13:05:25.153Z,94807.09
2022-08-27T13:07:53.629Z,94806.66
2022-08-27T13:10:32.456Z,94799.66
2022-08-27T13:13:12.188Z,94799.59
2022-08-27T13:15:46.357Z,94793.19
2022-08-27T13:18:13.430Z,94800.72
2022-08-27T13:20:40.900Z,94793.03
2022-08-27T13:23:20.385Z,94793.72
2022-08-27T13:26:03.754Z,94782.59
2022-08-27T13:28:31.514Z,94791.06
2022-08-27T13:31:00.028Z,94784.75
2022-08-27T13:33:31.294Z,94783.41
2022-08-27T13:35:59.027Z,94781.50
2022-08-27T13:38:28.894Z,94789.44
2022-08-27T13:40:59.169Z,94788.50
2022-08-27T13:43:37.461Z,94786.34
2022-08-27T13:46:12.351Z,94786.09
2022-08-27T13:48:44.532Z,94779.56
2022-08-27T13:51:13.688Z,94782.19
2022-08-27T13:54:06.446Z,94778.59
2022-08-27T13:56:37.246Z,94781.59
2022-08-27T13:59:19.007Z,94783.34
2022-08-27T14:01:54.841Z,94785.38
2022-08-27T14:04:25.421Z,94775.50
2022-08-27T14:06:53.438Z,94781.81
2022-08-27T14:09:23.142Z,94787.59
2022-08-27T14:12:05.434Z,94789.22
2022-08-27T14:14:38.343Z,94793.31
2022-08-27T14:17:08.744Z,94784.13
2022-08-27T14:19:36.577Z,94792.88
2022-08-27T14:22:04.644Z,94791.63
2022-08-27T14:24:31.360Z,94785.38
2022-08-27T14:27:07.790Z,94786.16
2022-08-27T14:29:34.499Z,94776.59
2022-08-27T14:32:01.275Z,94779.28
2022-08-27T14:34:28.878Z,94779.34
2022-08-27T14:36:55.569Z,94773.81
2022-08-27T14:39:26.471Z,94765.91
2022-08-27T14:41:53.426Z,94767.56
2022-08-27T14:44:22.345Z,94772.66
2022-08-27T14:46:49.537Z,94767.31
2022-08-27T14:49:30.930Z,94763.88
2022-08-27T14:51:58.091Z,94757.44
2022-08-27T14:54:29.120Z,94760.34
2022-08-27T14:57:02.194Z,94755.44
2022-08-27T14:59:29.333Z,94755.78
2022-08-27T15:01:58.231Z,94756.00
2022-08-27T15:04:26.587Z,94760.97
2022-08-27T15:06:55.074Z,94759.53
2022-08-27T15:09:22.530Z,94759.44
2022-08-27T15:11:51.155Z,94761.88
2022-08-27T15:14:25.756Z,94759.50
2022-08-27T15:16:53.452Z,94755.53
2022-08-27T15:19:22.097Z,94760.28
2022-08-27T15:21:50.423Z,94764.41
2022-08-27T15:24:22.762Z,94763.09
2022-08-27T15:26:50.760Z,94765.44
2022-08-27T15:29:17.650Z,94764.06
2022-08-27T15:31:45.015Z,94769.06
2022-08-27T15:34:13.093Z,94769.63
2022-08-27T15:36:40.964Z,94776.41
2022-08-27T15:39:08.324Z,94773.00
2022-08-27T15:41:50.836Z,94764.47
2022-08-27T15:44:23.762Z,94767.91
2022-08-27T15:46:51.276Z,94772.09
2022-08-27T15:49:18.544Z,94773.09
2022-08-27T15:51:45.581Z,94777.81
2022-08-27T15:54:12.790Z,94779.25
2022-08-27T15:56:39.956Z,94789.25
2022-08-27T15:59:07.603Z,94785.66
2022-08-27T16:01:37.193Z,94777.56
2022-08-27T16:04:06.078Z,94783.75
2022-08-27T16:06:34.814Z,94785.28
2022-08-27T16:09:01.895Z,94785.63
2022-08-27T16:11:28.626Z,94784.19
2022-08-27T16:13:56.231Z,94789.16
2022-08-27T16:16:26.425Z,94784.22
2022-08-27T16:18:53.897Z,94785.28
2022-08-27T16:21:20.928Z,94779.94
2022-08-27T16:23:47.892Z,94782.56
2022-08-27T16:26:16.790Z,94773.38
2022-08-27T16:28:44.465Z,94771.75
2022-08-27T16:31:13.670Z,94778.34
2022-08-27T16:33:43.768Z,94780.25
2022-08-27T16:36:11.186Z,94780.31
2022-08-27T16:38:38.073Z,94785.97
2022-08-27T16:41:05.864Z,94788.41
2022-08-27T16:43:33.149Z,94788.72
2022-08-27T16:46:01.618Z,94785.41
2022-08-27T16:48:47.639Z,94792.97
2022-08-27T16:51:32.671Z,94789.44
2022-08-27T16:54:03.829Z,94798.13
2022-08-27T16:56:33.858Z,94795.16
2022-08-27T16:59:04.000Z,94801.66
2022-08-27T17:01:31.805Z,94808.31
2022-08-27T17:04:16.023Z,94809.88
2022-08-27T17:06:51.521Z,94809.09
2022-08-27T17:09:19.115Z,94803.38
2022-08-27T17:11:50.676Z,94809.84
2022-08-27T17:14:17.331Z,94814.84
2022-08-27T17:16:43.978Z,94817.72
2022-08-27T17:19:16.724Z,94819.19
2022-08-27T17:21:45.074Z,94823.00
2022-08-27T17:24:13.179Z,94825.88
2022-08-27T17:26:40.468Z,94834.59
2022-08-27T17:29:07.390Z,94827.50
2022-08-27T17:31:40.385Z,94824.31
2022-08-27T17:34:12.338Z,94833.66
2022-08-27T17:36:38.986Z,94824.72
2022-08-27T17:39:05.697Z,94830.53
2022-08-27T17:41:34.145Z,94830.75
2022-08-27T17:44:07.753Z,94830.75
2022-08-27T17:46:34.388Z,94834.81
2022-08-27T17:49:01.387Z,94844.31
2022-08-27T17:51:28.565Z,94840.03
2022-08-27T17:54:00.928Z,94843.16
2022-08-27T17:56:29.486Z,94841.56
2022-08-27T17:58:56.843Z,94838.94
2022-08-27T18:01:28.390Z,94840.03
2022-08-27T18:03:57.017Z,94832.13
2022-08-27T18:06:24.879Z,94839.66
2022-08-27T18:08:51.738Z,94847.50
2022-08-27T18:11:19.083Z,94851.22
2022-08-27T18:13:52.187Z,94853.09
2022-08-27T18:16:19.812Z,94859.97
2022-08-27T18:18:46.850Z,94863.66
2022-08-27T18:21:13.773Z,94868.91
2022-08-27T18:23:50.888Z,94870.22
2022-08-27T18:26:20.381Z,94875.84
2022-08-27T18:28:47.747Z,94882.63
2022-08-27T18:31:17.690Z,94883.41
2022-08-27T18:33:44.429Z,94894.69
2022-08-27T18:36:11.230Z,94891.59
2022-08-27T18:38:37.970Z,94893.25
2022-08-27T18:41:08.504Z,94894.31
2022-08-27T18:43:36.383Z,94898.66
2022-08-27T18:46:05.086Z,94901.13
2022-08-27T18:48:32.430Z,94896.75
2022-08-27T18:51:02.314Z,94902.81
2022-08-27T18:53:32.191Z,94908.69
2022-08-27T18:55:59.330Z,94914.47
2022-08-27T18:58:26.655Z,94918.25
2022-08-27T19:00:58.115Z,94915.66
2022-08-27T19:03:32.447Z,94921.91
2022-08-27T19:06:00.592Z,94922.53
2022-08-27T19:08:28.293Z,94918.88
2022-08-27T19:10:55.665Z,94926.00
2022-08-27T19:13:22.897Z,94920.38
2022-08-27T19:15:57.463Z,94928.63
2022-08-27T19:18:26.875Z,94933.47
2022-08-27T19:20:54.197Z,94932.47
2022-08-27T19:23:22.404Z,94928.69
2022-08-27T19:25:51.841Z,94933.34
2022-08-27T19:28:23.804Z,94938.03
2022-08-27T19:30:50.483Z,94943.66
2022-08-27T19:33:17.408Z,94952.69
2022-08-27T19:35:44.134Z,94951.06
2022-08-27T19:38:12.982Z,94958.69
2022-08-27T19:40:40.991Z,94959.06
2022-08-27T19:43:08.056Z,94950.81
2022-08-27T19:45:35.549Z,94963.56
2022-08-27T19:48:08.309Z,94955.47
2022-08-27T19:50:35.196Z,94958.34
2022-08-27T19:53:01.979Z,94955.94
2022-08-27T19:55:28.694Z,94956.75
2022-08-27T19:57:55.472Z,94949.47
2022-08-27T20:00:24.825Z,94954.28
2022-08-27T20:02:54.834Z,94947.47
2022-08-27T20:05:22.783Z,94953.19
2022-08-27T20:07:52.393Z,94955.88
2022-08-27T20:10:21.724Z,94951.06
2022-08-27T20:12:49.058Z,94953.28
2022-08-27T20:15:16.071Z,94951.88
2022-08-27T20:17:43.937Z,94947.25
2022-08-27T20:20:12.578Z,94950.25
2022-08-27T20:22:40.340Z,94942.00
2022-08-27T20:25:07.525Z,94941.03
2022-08-27T20:27:34.962Z,94944.41
2022-08-27T20:30:03.667Z,94942.22
2022-08-27T20:32:31.084Z,94947.47
2022-08-27T20:34:58.806Z,94950.50
2022-08-27T20:37:25.848Z,94954.53
2022-08-27T20:39:52.819Z,94956.72
2022-08-27T20:42:20.248Z,94948.50
2022-08-27T20:44:47.745Z,94954.53
2022-08-27T20:47:15.900Z,94958.97
2022-08-27T20:49:44.520Z,94968.03
2022-08-27T20:52:12.841Z,94962.59
2022-08-27T20:54:40.554Z,94966.59
2022-08-27T20:57:08.758Z,94966.00
2022-08-27T20:59:53.993Z,94964.59
2022-08-27T21:02:24.072Z,94964.59
2022-08-27T21:04:51.146Z,94960.38
2022-08-27T21:07:19.394Z,94966.19
2022-08-27T21:09:57.023Z,94966.41
2022-08-27T21:12:29.457Z,94968.00
2022-08-27T21:14:56.815Z,94975.06
2022-08-27T21:17:27.014Z,94971.84
2022-08-27T21:19:53.747Z,94972.25
2022-08-27T21:22:21.114Z,94979.69
2022-08-27T21:24:47.933Z,94977.47
2022-08-27T21:27:15.986Z,94975.66
2022-08-27T21:29:44.599Z,94977.47
2022-08-27T21:32:11.713Z,94976.81
2022-08-27T21:34:38.425Z,94975.03
2022-08-27T21:37:05.291Z,94972.41
2022-08-27T21:39:33.141Z,94981.47
2022-08-27T21:42:01.601Z,94976.63
2022-08-27T21:44:30.235Z,94973.66
2022-08-27T21:46:58.033Z,94984.91
2022-08-27T21:49:24.723Z,94989.34
2022-08-27T21:51:51.508Z,94991.91
2022-08-27T21:54:18.135Z,94985.66
2022-08-27T21:56:45.434Z,94987.84
2022-08-27T21:59:12.134Z,94988.63
2022-08-27T22:01:39.344Z,94982.59
2022-08-27T22:04:06.545Z,94985.84
2022-08-27T22:06:33.176Z,94990.50
2022-08-27T22:09:00.285Z,94986.06
2022-08-27T22:11:28.073Z,94989.84
2022-08-27T22:13:58.277Z,94986.63
2022-08-27T22:16:25.164Z,94987.41
2022-08-27T22:18:54.570Z,94984.63
2022-08-27T22:21:22.127Z,94990.03
2022-08-27T22:23:51.273Z,94990.59
2022-08-27T22:26:18.959Z,94983.56
2022-08-27T22:28:45.582Z,94984.78
2022-08-27T22:31:12.263Z,94985.38
2022-08-27T22:33:39.049Z,94985.38
2022-08-27T22:36:05.964Z,94989.59
2022-08-27T22:38:32.857Z,94984.16
2022-08-27T22:40:59.740Z,94991.19
2022-08-27T22:43:27.788Z,94989.34
2022-08-27T22:45:54.498Z,94986.72
2022-08-27T22:48:21.234Z,94983.50
2022-08-27T22:50:47.877Z,94981.13
2022-08-27T22:53:15.653Z,94983.31
2022-08-27T22:55:45.641Z,94980.28
2022-08-27T22:58:14.910Z,94980.53
2022-08-27T23:00:45.197Z,94978.28
2022-08-27T23:03:19.058Z,94976.47
2022-08-27T23:05:46.113Z,94980.84
2022-08-27T23:08:13.943Z,94985.09
2022-08-27T23:10:42.598Z,94979.88
2022-08-27T23:13:10.959Z,94980.66
2022-08-27T23:15:38.652Z,94983.06
2022-08-27T23:18:06.027Z,94981.28
2022-08-27T23:20:33.049Z,94981.06
2022-08-27T23:22:59.888Z,94982.50
2022-08-27T23:25:47.288Z,94977.47
2022-08-27T23:28:15.513Z,94980.66
2022-08-27T23:30:43.498Z,94981.44
2022-08-27T23:33:10.291Z,94980.84
2022-08-27T23:35:37.167Z,94977.50
2022-08-27T23:38:03.833Z,94986.31
2022-08-27T23:40:30.531Z,94982.91
2022-08-27T23:42:57.269Z,94986.56
2022-08-27T23:45:25.659Z,94985.94
2022-08-27T23:47:52.287Z,94985.94
2022-08-27T23:50:19.603Z,94987.13
2022-08-27T23:52:46.243Z,94991.09
2022-08-27T23:55:13.218Z,94986.69
2022-08-27T23:57:40.547Z,94985.53
